sensor_id;sensor_type;location;lat;lon;timestamp;temperature;humidity
1359;DHT22;673;48.098;14.422;2023-07-29T00:01:36;17.10;99.90
1359;DHT22;673;48.098;14.422;2023-07-29T00:04:07;17.10;99.90
1359;DHT22;673;48.098;14.422;2023-07-29T00:06:35;17.10;99.90
1359;DHT22;673;48.098;14.422;2023-07-29T00:09:02;17.10;99.90
1359;DHT22;673;48.098;14.422;2023-07-29T00:11:29;17.10;99.90
1359;DHT22;673;48.098;14.422;2023-07-29T00:13:58;17.10;99.90
1359;DHT22;673;48.098;14.422;2023-07-29T00:16:25;17.00;99.90
1359;DHT22;673;48.098;14.422;2023-07-29T00:18:52;16.90;99.90
1359;DHT22;673;48.098;14.422;2023-07-29T00:21:20;16.90;99.90
1359;DHT22;673;48.098;14.422;2023-07-29T00:23:47;16.90;99.90
1359;DHT22;673;48.098;14.422;2023-07-29T00:26:14;16.80;99.90
1359;DHT22;673;48.098;14.422;2023-07-29T00:28:41;16.90;99.90
1359;DHT22;673;48.098;14.422;2023-07-29T00:31:08;16.90;99.90
1359;DHT22;673;48.098;14.422;2023-07-29T00:33:35;17.00;99.90
1359;DHT22;673;48.098;14.422;2023-07-29T00:36:02;16.90;99.90
1359;DHT22;673;48.098;14.422;2023-07-29T00:38:30;17.00;99.90
1359;DHT22;673;48.098;14.422;2023-07-29T00:40:57;17.00;99.90
1359;DHT22;673;48.098;14.422;2023-07-29T00:43:24;17.00;99.90
1359;DHT22;673;48.098;14.422;2023-07-29T00:45:51;16.90;99.90
1359;DHT22;673;48.098;14.422;2023-07-29T00:48:19;17.00;99.90
1359;DHT22;673;48.098;14.422;2023-07-29T00:50:46;16.90;99.90
1359;DHT22;673;48.098;14.422;2023-07-29T00:53:13;16.90;99.90
1359;DHT22;673;48.098;14.422;2023-07-29T00:55:41;16.90;99.90
1359;DHT22;673;48.098;14.422;2023-07-29T00:58:08;16.80;99.90
1359;DHT22;673;48.098;14.422;2023-07-29T01:00:36;16.90;99.90
1359;DHT22;673;48.098;14.422;2023-07-29T01:03:03;17.00;99.90
1359;DHT22;673;48.098;14.422;2023-07-29T01:05:39;17.00;99.90
1359;DHT22;673;48.098;14.422;2023-07-29T01:08:16;17.00;99.90
1359;DHT22;673;48.098;14.422;2023-07-29T01:10:53;17.00;99.90
1359;DHT22;673;48.098;14.422;2023-07-29T01:13:26;16.90;99.90
1359;DHT22;673;48.098;14.422;2023-07-29T01:15:58;16.80;99.90
1359;DHT22;673;48.098;14.422;2023-07-29T01:18:28;16.80;99.90
1359;DHT22;673;48.098;14.422;2023-07-29T01:20:59;16.90;99.90
1359;DHT22;673;48.098;14.422;2023-07-29T01:23:29;17.00;99.90
1359;DHT22;673;48.098;14.422;2023-07-29T01:25:56;17.00;99.90
1359;DHT22;673;48.098;14.422;2023-07-29T01:28:24;17.00;99.90
1359;DHT22;673;48.098;14.422;2023-07-29T01:30:55;17.00;99.90
1359;DHT22;673;48.098;14.422;2023-07-29T01:33:26;17.10;99.90
1359;DHT22;673;48.098;14.422;2023-07-29T01:35:58;17.10;99.90
1359;DHT22;673;48.098;14.422;2023-07-29T01:38:29;17.10;99.90
1359;DHT22;673;48.098;14.422;2023-07-29T01:41:00;17.10;99.90
1359;DHT22;673;48.098;14.422;2023-07-29T01:43:28;17.00;99.90
1359;DHT22;673;48.098;14.422;2023-07-29T01:45:55;17.00;99.90
1359;DHT22;673;48.098;14.422;2023-07-29T01:48:23;17.00;99.90
1359;DHT22;673;48.098;14.422;2023-07-29T01:50:50;17.00;99.90
1359;DHT22;673;48.098;14.422;2023-07-29T01:53:17;17.00;99.90
1359;DHT22;673;48.098;14.422;2023-07-29T01:55:45;16.90;99.90
1359;DHT22;673;48.098;14.422;2023-07-29T01:58:12;16.90;99.90
1359;DHT22;673;48.098;14.422;2023-07-29T02:00:40;16.80;99.90
1359;DHT22;673;48.098;14.422;2023-07-29T02:03:07;16.70;99.90
1359;DHT22;673;48.098;14.422;2023-07-29T02:05:33;16.80;99.90
1359;DHT22;673;48.098;14.422;2023-07-29T02:08:00;16.70;99.90
1359;DHT22;673;48.098;14.422;2023-07-29T02:10:27;16.70;99.90
1359;DHT22;673;48.098;14.422;2023-07-29T02:12:56;16.80;99.90
1359;DHT22;673;48.098;14.422;2023-07-29T02:15:23;16.70;99.90
1359;DHT22;673;48.098;14.422;2023-07-29T02:17:50;16.60;99.90
1359;DHT22;673;48.098;14.422;2023-07-29T02:20:17;16.70;99.90
1359;DHT22;673;48.098;14.422;2023-07-29T02:22:44;16.70;99.90
1359;DHT22;673;48.098;14.422;2023-07-29T02:25:12;16.60;99.90
1359;DHT22;673;48.098;14.422;2023-07-29T02:27:38;16.60;99.90
1359;DHT22;673;48.098;14.422;2023-07-29T02:30:08;16.70;99.90
1359;DHT22;673;48.098;14.422;2023-07-29T02:32:36;16.70;99.90
1359;DHT22;673;48.098;14.422;2023-07-29T02:35:03;16.70;99.90
1359;DHT22;673;48.098;14.422;2023-07-29T02:37:31;16.70;99.90
1359;DHT22;673;48.098;14.422;2023-07-29T02:39:58;16.80;99.90
1359;DHT22;673;48.098;14.422;2023-07-29T02:42:25;16.90;99.90
1359;DHT22;673;48.098;14.422;2023-07-29T02:44:51;16.90;99.90
1359;DHT22;673;48.098;14.422;2023-07-29T02:47:20;16.90;99.90
1359;DHT22;673;48.098;14.422;2023-07-29T02:49:47;16.90;99.90
1359;DHT22;673;48.098;14.422;2023-07-29T02:52:14;16.90;99.90
1359;DHT22;673;48.098;14.422;2023-07-29T02:54:41;16.90;99.90
1359;DHT22;673;48.098;14.422;2023-07-29T02:57:07;17.00;99.90
1359;DHT22;673;48.098;14.422;2023-07-29T02:59:34;16.90;99.90
1359;DHT22;673;48.098;14.422;2023-07-29T03:02:01;16.80;99.90
1359;DHT22;673;48.098;14.422;2023-07-29T03:04:30;16.80;99.90
1359;DHT22;673;48.098;14.422;2023-07-29T03:06:57;16.90;99.90
1359;DHT22;673;48.098;14.422;2023-07-29T03:09:25;16.90;99.90
1359;DHT22;673;48.098;14.422;2023-07-29T03:11:52;16.90;99.90
1359;DHT22;673;48.098;14.422;2023-07-29T03:14:20;16.80;99.90
1359;DHT22;673;48.098;14.422;2023-07-29T03:16:47;16.70;99.90
1359;DHT22;673;48.098;14.422;2023-07-29T03:19:15;16.60;99.90
1359;DHT22;673;48.098;14.422;2023-07-29T03:21:43;16.70;99.90
1359;DHT22;673;48.098;14.422;2023-07-29T03:24:11;16.70;99.90
1359;DHT22;673;48.098;14.422;2023-07-29T03:26:38;16.70;99.90
1359;DHT22;673;48.098;14.422;2023-07-29T03:29:05;16.70;99.90
1359;DHT22;673;48.098;14.422;2023-07-29T03:31:32;16.60;99.90
1359;DHT22;673;48.098;14.422;2023-07-29T03:33:59;16.50;99.90
1359;DHT22;673;48.098;14.422;2023-07-29T03:36:26;16.50;99.90
1359;DHT22;673;48.098;14.422;2023-07-29T03:38:54;16.60;99.90
1359;DHT22;673;48.098;14.422;2023-07-29T03:41:21;16.60;99.90
1359;DHT22;673;48.098;14.422;2023-07-29T03:43:48;16.60;99.90
1359;DHT22;673;48.098;14.422;2023-07-29T03:46:15;16.60;99.90
1359;DHT22;673;48.098;14.422;2023-07-29T03:48:45;16.70;99.90
1359;DHT22;673;48.098;14.422;2023-07-29T03:51:12;16.60;99.90
1359;DHT22;673;48.098;14.422;2023-07-29T03:53:39;16.60;99.90
1359;DHT22;673;48.098;14.422;2023-07-29T03:56:07;16.60;99.90
1359;DHT22;673;48.098;14.422;2023-07-29T03:58:34;16.70;99.90
1359;DHT22;673;48.098;14.422;2023-07-29T04:01:01;16.50;99.90
1359;DHT22;673;48.098;14.422;2023-07-29T04:03:28;16.50;99.90
1359;DHT22;673;48.098;14.422;2023-07-29T04:05:55;16.50;99.90
1359;DHT22;673;48.098;14.422;2023-07-29T04:08:22;16.70;99.90
1359;DHT22;673;48.098;14.422;2023-07-29T04:10:49;16.80;99.90
1359;DHT22;673;48.098;14.422;2023-07-29T04:13:18;16.90;99.90
1359;DHT22;673;48.098;14.422;2023-07-29T04:15:45;16.80;99.90
1359;DHT22;673;48.098;14.422;2023-07-29T04:18:12;16.90;99.90
1359;DHT22;673;48.098;14.422;2023-07-29T04:20:39;17.00;99.90
1359;DHT22;673;48.098;14.422;2023-07-29T04:23:06;17.00;99.90
1359;DHT22;673;48.098;14.422;2023-07-29T04:25:33;17.10;99.90
1359;DHT22;673;48.098;14.422;2023-07-29T04:28:00;17.20;99.90
1359;DHT22;673;48.098;14.422;2023-07-29T04:30:30;17.30;99.90
1359;DHT22;673;48.098;14.422;2023-07-29T04:32:57;17.30;99.90
1359;DHT22;673;48.098;14.422;2023-07-29T04:35:24;17.30;99.90
1359;DHT22;673;48.098;14.422;2023-07-29T04:37:51;17.30;99.90
1359;DHT22;673;48.098;14.422;2023-07-29T04:40:18;17.40;99.90
1359;DHT22;673;48.098;14.422;2023-07-29T04:42:45;17.40;99.90
1359;DHT22;673;48.098;14.422;2023-07-29T04:45:12;17.40;99.90
1359;DHT22;673;48.098;14.422;2023-07-29T04:47:40;17.40;99.90
1359;DHT22;673;48.098;14.422;2023-07-29T04:50:08;17.30;99.90
1359;DHT22;673;48.098;14.422;2023-07-29T04:52:35;17.20;99.90
1359;DHT22;673;48.098;14.422;2023-07-29T04:55:02;17.20;99.90
1359;DHT22;673;48.098;14.422;2023-07-29T04:57:29;17.20;99.90
1359;DHT22;673;48.098;14.422;2023-07-29T04:59:56;17.20;99.90
1359;DHT22;673;48.098;14.422;2023-07-29T05:02:23;17.20;99.90
1359;DHT22;673;48.098;14.422;2023-07-29T05:04:52;17.10;99.90
1359;DHT22;673;48.098;14.422;2023-07-29T05:07:19;17.10;99.90
1359;DHT22;673;48.098;14.422;2023-07-29T05:09:46;17.10;99.90
1359;DHT22;673;48.098;14.422;2023-07-29T05:12:14;17.10;99.90
1359;DHT22;673;48.098;14.422;2023-07-29T05:14:41;17.20;99.90
1359;DHT22;673;48.098;14.422;2023-07-29T05:17:07;17.20;99.90
1359;DHT22;673;48.098;14.422;2023-07-29T05:19:34;17.30;99.90
1359;DHT22;673;48.098;14.422;2023-07-29T05:22:03;17.30;99.90
1359;DHT22;673;48.098;14.422;2023-07-29T05:24:30;17.40;99.90
1359;DHT22;673;48.098;14.422;2023-07-29T05:26:57;17.40;99.90
1359;DHT22;673;48.098;14.422;2023-07-29T05:29:24;17.50;99.90
1359;DHT22;673;48.098;14.422;2023-07-29T05:31:51;17.60;99.90
1359;DHT22;673;48.098;14.422;2023-07-29T05:34:18;17.80;99.90
1359;DHT22;673;48.098;14.422;2023-07-29T05:36:45;18.00;99.90
1359;DHT22;673;48.098;14.422;2023-07-29T05:39:13;18.20;99.90
1359;DHT22;673;48.098;14.422;2023-07-29T05:41:40;18.30;99.90
1359;DHT22;673;48.098;14.422;2023-07-29T05:44:07;18.50;99.90
1359;DHT22;673;48.098;14.422;2023-07-29T05:46:34;18.60;99.90
1359;DHT22;673;48.098;14.422;2023-07-29T05:49:01;18.60;99.90
1359;DHT22;673;48.098;14.422;2023-07-29T05:51:28;18.70;99.90
1359;DHT22;673;48.098;14.422;2023-07-29T05:53:55;18.80;99.90
1359;DHT22;673;48.098;14.422;2023-07-29T05:56:23;19.00;99.90
1359;DHT22;673;48.098;14.422;2023-07-29T05:58:50;19.20;99.90
1359;DHT22;673;48.098;14.422;2023-07-29T06:01:18;19.40;99.90
1359;DHT22;673;48.098;14.422;2023-07-29T06:03:46;19.50;99.90
1359;DHT22;673;48.098;14.422;2023-07-29T06:06:14;19.50;99.90
1359;DHT22;673;48.098;14.422;2023-07-29T06:08:41;19.60;99.90
1359;DHT22;673;48.098;14.422;2023-07-29T06:11:07;19.70;99.90
1359;DHT22;673;48.098;14.422;2023-07-29T06:13:36;19.90;99.90
1359;DHT22;673;48.098;14.422;2023-07-29T06:16:03;20.10;99.90
1359;DHT22;673;48.098;14.422;2023-07-29T06:18:30;20.10;99.90
1359;DHT22;673;48.098;14.422;2023-07-29T06:20:57;20.20;99.90
1359;DHT22;673;48.098;14.422;2023-07-29T06:23:24;20.10;99.90
1359;DHT22;673;48.098;14.422;2023-07-29T06:25:51;20.20;99.90
1359;DHT22;673;48.098;14.422;2023-07-29T06:28:18;20.30;99.90
1359;DHT22;673;48.098;14.422;2023-07-29T06:30:46;20.40;99.90
1359;DHT22;673;48.098;14.422;2023-07-29T06:33:13;20.40;99.90
1359;DHT22;673;48.098;14.422;2023-07-29T06:35:41;20.50;99.90
1359;DHT22;673;48.098;14.422;2023-07-29T06:38:08;20.70;99.90
1359;DHT22;673;48.098;14.422;2023-07-29T06:40:35;20.60;99.90
1359;DHT22;673;48.098;14.422;2023-07-29T06:43:02;20.80;99.90
1359;DHT22;673;48.098;14.422;2023-07-29T06:45:29;20.90;99.90
1359;DHT22;673;48.098;14.422;2023-07-29T06:47:57;21.00;99.90
1359;DHT22;673;48.098;14.422;2023-07-29T06:50:24;21.00;99.90
1359;DHT22;673;48.098;14.422;2023-07-29T06:52:51;20.90;99.90
1359;DHT22;673;48.098;14.422;2023-07-29T06:55:18;21.30;99.90
1359;DHT22;673;48.098;14.422;2023-07-29T06:57:45;21.70;99.90
1359;DHT22;673;48.098;14.422;2023-07-29T07:00:13;21.90;99.90
1359;DHT22;673;48.098;14.422;2023-07-29T07:02:40;21.90;99.90
1359;DHT22;673;48.098;14.422;2023-07-29T07:05:08;22.00;99.90
1359;DHT22;673;48.098;14.422;2023-07-29T07:07:35;21.90;99.90
1359;DHT22;673;48.098;14.422;2023-07-29T07:10:04;22.00;99.90
1359;DHT22;673;48.098;14.422;2023-07-29T07:12:31;22.10;99.90
1359;DHT22;673;48.098;14.422;2023-07-29T07:14:58;22.10;99.90
1359;DHT22;673;48.098;14.422;2023-07-29T07:17:25;22.00;99.90
1359;DHT22;673;48.098;14.422;2023-07-29T07:19:52;22.20;99.90
1359;DHT22;673;48.098;14.422;2023-07-29T07:22:20;22.40;99.90
1359;DHT22;673;48.098;14.422;2023-07-29T07:24:47;22.50;99.90
1359;DHT22;673;48.098;14.422;2023-07-29T07:27:14;22.70;99.90
1359;DHT22;673;48.098;14.422;2023-07-29T07:29:41;22.90;99.90
1359;DHT22;673;48.098;14.422;2023-07-29T07:32:08;23.10;99.90
1359;DHT22;673;48.098;14.422;2023-07-29T07:34:35;22.70;99.90
1359;DHT22;673;48.098;14.422;2023-07-29T07:37:02;23.00;99.90
1359;DHT22;673;48.098;14.422;2023-07-29T07:39:31;23.20;99.90
1359;DHT22;673;48.098;14.422;2023-07-29T07:41:58;23.10;99.90
1359;DHT22;673;48.098;14.422;2023-07-29T07:44:25;23.30;99.90
1359;DHT22;673;48.098;14.422;2023-07-29T07:46:52;23.30;99.90
1359;DHT22;673;48.098;14.422;2023-07-29T07:49:20;23.50;99.90
1359;DHT22;673;48.098;14.422;2023-07-29T07:51:47;23.70;99.90
1359;DHT22;673;48.098;14.422;2023-07-29T07:54:14;24.00;99.90
1359;DHT22;673;48.098;14.422;2023-07-29T07:56:43;23.90;99.90
1359;DHT22;673;48.098;14.422;2023-07-29T07:59:10;23.80;99.90
1359;DHT22;673;48.098;14.422;2023-07-29T08:01:37;23.90;99.90
1359;DHT22;673;48.098;14.422;2023-07-29T08:04:05;23.90;99.90
1359;DHT22;673;48.098;14.422;2023-07-29T08:06:33;23.90;99.90
1359;DHT22;673;48.098;14.422;2023-07-29T08:09:01;24.40;99.90
1359;DHT22;673;48.098;14.422;2023-07-29T08:11:28;24.50;99.90
1359;DHT22;673;48.098;14.422;2023-07-29T08:13:58;24.20;99.90
1359;DHT22;673;48.098;14.422;2023-07-29T08:16:25;24.50;99.90
1359;DHT22;673;48.098;14.422;2023-07-29T08:18:53;24.60;99.90
1359;DHT22;673;48.098;14.422;2023-07-29T08:21:20;24.30;99.90
1359;DHT22;673;48.098;14.422;2023-07-29T08:23:47;24.50;99.90
1359;DHT22;673;48.098;14.422;2023-07-29T08:26:14;24.70;99.90
1359;DHT22;673;48.098;14.422;2023-07-29T08:28:42;25.00;99.90
1359;DHT22;673;48.098;14.422;2023-07-29T08:31:10;25.30;99.90
1359;DHT22;673;48.098;14.422;2023-07-29T08:33:37;25.30;99.90
1359;DHT22;673;48.098;14.422;2023-07-29T08:36:04;25.20;99.90
1359;DHT22;673;48.098;14.422;2023-07-29T08:38:31;25.20;99.90
1359;DHT22;673;48.098;14.422;2023-07-29T08:41:04;25.00;99.90
1359;DHT22;673;48.098;14.422;2023-07-29T08:43:33;24.80;99.90
1359;DHT22;673;48.098;14.422;2023-07-29T08:46:00;25.00;99.90
1359;DHT22;673;48.098;14.422;2023-07-29T08:48:33;24.90;99.90
1359;DHT22;673;48.098;14.422;2023-07-29T08:51:03;24.70;99.90
1359;DHT22;673;48.098;14.422;2023-07-29T08:53:32;24.40;99.90
1359;DHT22;673;48.098;14.422;2023-07-29T08:55:59;24.70;99.90
1359;DHT22;673;48.098;14.422;2023-07-29T08:58:26;24.80;99.90
1359;DHT22;673;48.098;14.422;2023-07-29T09:00:54;25.10;99.90
1359;DHT22;673;48.098;14.422;2023-07-29T09:03:21;25.20;99.90
1359;DHT22;673;48.098;14.422;2023-07-29T09:05:50;25.10;99.90
1359;DHT22;673;48.098;14.422;2023-07-29T09:08:17;25.30;99.90
1359;DHT22;673;48.098;14.422;2023-07-29T09:10:44;25.10;99.90
1359;DHT22;673;48.098;14.422;2023-07-29T09:13:11;25.20;99.90
1359;DHT22;673;48.098;14.422;2023-07-29T09:15:39;25.40;99.90
1359;DHT22;673;48.098;14.422;2023-07-29T09:18:12;25.70;99.90
1359;DHT22;673;48.098;14.422;2023-07-29T09:20:39;25.60;99.90
1359;DHT22;673;48.098;14.422;2023-07-29T09:23:09;25.60;99.90
1359;DHT22;673;48.098;14.422;2023-07-29T09:25:37;25.70;99.90
1359;DHT22;673;48.098;14.422;2023-07-29T09:28:09;25.80;99.90
1359;DHT22;673;48.098;14.422;2023-07-29T09:30:37;25.90;99.90
1359;DHT22;673;48.098;14.422;2023-07-29T09:33:06;25.90;99.90
1359;DHT22;673;48.098;14.422;2023-07-29T09:35:34;26.00;99.90
1359;DHT22;673;48.098;14.422;2023-07-29T09:38:02;26.20;99.90
1359;DHT22;673;48.098;14.422;2023-07-29T09:40:35;26.20;99.90
1359;DHT22;673;48.098;14.422;2023-07-29T09:43:04;26.40;99.90
1359;DHT22;673;48.098;14.422;2023-07-29T09:45:33;26.90;99.10
1359;DHT22;673;48.098;14.422;2023-07-29T09:48:00;27.30;99.90
1359;DHT22;673;48.098;14.422;2023-07-29T09:50:27;27.10;98.60
1359;DHT22;673;48.098;14.422;2023-07-29T09:52:55;27.30;98.10
1359;DHT22;673;48.098;14.422;2023-07-29T09:55:24;26.90;96.90
1359;DHT22;673;48.098;14.422;2023-07-29T09:57:56;26.60;97.80
1359;DHT22;673;48.098;14.422;2023-07-29T10:00:25;26.30;98.20
1359;DHT22;673;48.098;14.422;2023-07-29T10:02:53;26.20;98.70
1359;DHT22;673;48.098;14.422;2023-07-29T10:05:22;25.80;99.60
1359;DHT22;673;48.098;14.422;2023-07-29T10:07:49;25.60;99.90
1359;DHT22;673;48.098;14.422;2023-07-29T10:10:17;25.50;99.90
1359;DHT22;673;48.098;14.422;2023-07-29T10:12:44;25.20;99.90
1359;DHT22;673;48.098;14.422;2023-07-29T10:15:13;25.00;99.90
1359;DHT22;673;48.098;14.422;2023-07-29T10:17:41;25.00;99.90
1359;DHT22;673;48.098;14.422;2023-07-29T10:20:09;24.90;99.90
1359;DHT22;673;48.098;14.422;2023-07-29T10:22:38;25.10;99.90
1359;DHT22;673;48.098;14.422;2023-07-29T10:25:08;24.90;99.90
1359;DHT22;673;48.098;14.422;2023-07-29T10:27:41;24.40;99.90
1359;DHT22;673;48.098;14.422;2023-07-29T10:30:12;23.70;99.90
1359;DHT22;673;48.098;14.422;2023-07-29T10:32:42;23.40;99.90
1359;DHT22;673;48.098;14.422;2023-07-29T10:35:11;23.40;99.90
1359;DHT22;673;48.098;14.422;2023-07-29T10:37:39;23.30;99.90
1359;DHT22;673;48.098;14.422;2023-07-29T10:40:08;23.30;99.90
1359;DHT22;673;48.098;14.422;2023-07-29T10:42:36;23.10;99.90
1359;DHT22;673;48.098;14.422;2023-07-29T10:45:21;23.00;99.90
1359;DHT22;673;48.098;14.422;2023-07-29T10:47:48;23.10;99.90
1359;DHT22;673;48.098;14.422;2023-07-29T10:50:19;23.20;99.90
1359;DHT22;673;48.098;14.422;2023-07-29T10:52:49;23.40;99.90
1359;DHT22;673;48.098;14.422;2023-07-29T10:55:28;23.50;99.90
1359;DHT22;673;48.098;14.422;2023-07-29T10:58:07;23.60;99.90
1359;DHT22;673;48.098;14.422;2023-07-29T11:00:35;23.80;99.90
1359;DHT22;673;48.098;14.422;2023-07-29T11:03:05;23.80;99.90
1359;DHT22;673;48.098;14.422;2023-07-29T11:05:48;23.80;99.90
1359;DHT22;673;48.098;14.422;2023-07-29T11:08:23;23.70;99.90
1359;DHT22;673;48.098;14.422;2023-07-29T11:11:06;23.70;99.90
1359;DHT22;673;48.098;14.422;2023-07-29T11:13:34;23.80;99.90
1359;DHT22;673;48.098;14.422;2023-07-29T11:16:03;23.80;99.90
1359;DHT22;673;48.098;14.422;2023-07-29T11:18:32;23.60;99.90
1359;DHT22;673;48.098;14.422;2023-07-29T11:21:00;23.70;99.90
1359;DHT22;673;48.098;14.422;2023-07-29T11:23:29;23.70;99.90
1359;DHT22;673;48.098;14.422;2023-07-29T11:25:57;23.60;99.90
1359;DHT22;673;48.098;14.422;2023-07-29T11:28:24;23.60;99.90
1359;DHT22;673;48.098;14.422;2023-07-29T11:30:52;23.70;99.90
1359;DHT22;673;48.098;14.422;2023-07-29T11:33:23;23.80;99.90
1359;DHT22;673;48.098;14.422;2023-07-29T11:35:51;23.90;99.90
1359;DHT22;673;48.098;14.422;2023-07-29T11:38:19;24.00;99.90
1359;DHT22;673;48.098;14.422;2023-07-29T11:40:57;24.10;99.90
1359;DHT22;673;48.098;14.422;2023-07-29T11:43:25;24.10;99.90
1359;DHT22;673;48.098;14.422;2023-07-29T11:45:52;24.20;99.90
1359;DHT22;673;48.098;14.422;2023-07-29T11:48:26;24.40;99.90
1359;DHT22;673;48.098;14.422;2023-07-29T11:50:53;24.40;99.90
1359;DHT22;673;48.098;14.422;2023-07-29T11:53:21;24.60;99.90
1359;DHT22;673;48.098;14.422;2023-07-29T11:55:51;24.50;99.90
1359;DHT22;673;48.098;14.422;2023-07-29T11:58:18;24.60;99.90
1359;DHT22;673;48.098;14.422;2023-07-29T12:00:47;25.30;99.90
1359;DHT22;673;48.098;14.422;2023-07-29T12:03:14;26.00;99.90
1359;DHT22;673;48.098;14.422;2023-07-29T12:05:44;26.30;99.90
1359;DHT22;673;48.098;14.422;2023-07-29T12:08:11;26.20;99.90
1359;DHT22;673;48.098;14.422;2023-07-29T12:10:39;25.80;99.90
1359;DHT22;673;48.098;14.422;2023-07-29T12:13:07;25.70;99.90
1359;DHT22;673;48.098;14.422;2023-07-29T12:15:35;25.90;99.90
1359;DHT22;673;48.098;14.422;2023-07-29T12:18:04;25.60;99.90
1359;DHT22;673;48.098;14.422;2023-07-29T12:20:31;25.60;99.90
1359;DHT22;673;48.098;14.422;2023-07-29T12:23:00;25.70;99.90
1359;DHT22;673;48.098;14.422;2023-07-29T12:25:28;26.10;99.90
1359;DHT22;673;48.098;14.422;2023-07-29T12:27:55;26.30;99.90
1359;DHT22;673;48.098;14.422;2023-07-29T12:30:23;26.40;99.90
1359;DHT22;673;48.098;14.422;2023-07-29T12:32:51;26.40;99.90
1359;DHT22;673;48.098;14.422;2023-07-29T12:35:18;26.60;99.90
1359;DHT22;673;48.098;14.422;2023-07-29T12:37:45;26.70;98.80
1359;DHT22;673;48.098;14.422;2023-07-29T12:40:24;26.60;99.60
1359;DHT22;673;48.098;14.422;2023-07-29T12:42:51;26.40;98.50
1359;DHT22;673;48.098;14.422;2023-07-29T12:45:19;26.60;98.90
1359;DHT22;673;48.098;14.422;2023-07-29T12:47:48;26.80;97.10
1359;DHT22;673;48.098;14.422;2023-07-29T12:50:15;27.00;96.40
1359;DHT22;673;48.098;14.422;2023-07-29T12:52:42;27.00;97.70
1359;DHT22;673;48.098;14.422;2023-07-29T12:55:09;27.00;97.10
1359;DHT22;673;48.098;14.422;2023-07-29T12:57:41;27.10;98.10
1359;DHT22;673;48.098;14.422;2023-07-29T13:00:09;27.50;96.60
1359;DHT22;673;48.098;14.422;2023-07-29T13:02:36;27.70;96.00
1359;DHT22;673;48.098;14.422;2023-07-29T13:05:04;28.00;93.80
1359;DHT22;673;48.098;14.422;2023-07-29T13:07:31;28.10;94.60
1359;DHT22;673;48.098;14.422;2023-07-29T13:09:58;28.20;94.80
1359;DHT22;673;48.098;14.422;2023-07-29T13:12:25;27.80;93.20
1359;DHT22;673;48.098;14.422;2023-07-29T13:14:54;27.60;95.30
1359;DHT22;673;48.098;14.422;2023-07-29T13:17:21;27.10;94.50
1359;DHT22;673;48.098;14.422;2023-07-29T13:19:48;26.70;95.90
1359;DHT22;673;48.098;14.422;2023-07-29T13:22:15;26.40;95.20
1359;DHT22;673;48.098;14.422;2023-07-29T13:24:42;26.40;96.60
1359;DHT22;673;48.098;14.422;2023-07-29T13:27:09;26.20;96.20
1359;DHT22;673;48.098;14.422;2023-07-29T13:29:36;26.00;96.30
1359;DHT22;673;48.098;14.422;2023-07-29T13:32:06;25.70;95.80
1359;DHT22;673;48.098;14.422;2023-07-29T13:34:33;25.70;97.50
1359;DHT22;673;48.098;14.422;2023-07-29T13:37:00;25.70;97.50
1359;DHT22;673;48.098;14.422;2023-07-29T13:39:27;25.50;96.50
1359;DHT22;673;48.098;14.422;2023-07-29T13:41:54;25.40;97.50
1359;DHT22;673;48.098;14.422;2023-07-29T13:44:21;25.10;98.80
1359;DHT22;673;48.098;14.422;2023-07-29T13:46:48;24.80;98.20
1359;DHT22;673;48.098;14.422;2023-07-29T13:49:17;24.70;98.10
1359;DHT22;673;48.098;14.422;2023-07-29T13:51:43;24.60;98.50
1359;DHT22;673;48.098;14.422;2023-07-29T13:54:11;24.30;99.50
1359;DHT22;673;48.098;14.422;2023-07-29T13:56:38;23.80;99.90
1359;DHT22;673;48.098;14.422;2023-07-29T13:59:05;20.70;99.90
1359;DHT22;673;48.098;14.422;2023-07-29T14:01:32;18.10;99.90
1359;DHT22;673;48.098;14.422;2023-07-29T14:03:59;17.60;99.90
1359;DHT22;673;48.098;14.422;2023-07-29T14:06:27;17.30;99.90
1359;DHT22;673;48.098;14.422;2023-07-29T14:08:54;17.20;99.90
1359;DHT22;673;48.098;14.422;2023-07-29T14:11:21;17.10;99.90
1359;DHT22;673;48.098;14.422;2023-07-29T14:13:48;17.20;99.90
1359;DHT22;673;48.098;14.422;2023-07-29T14:16:15;17.30;99.90
1359;DHT22;673;48.098;14.422;2023-07-29T14:18:42;17.70;99.90
1359;DHT22;673;48.098;14.422;2023-07-29T14:21:09;18.10;99.90
1359;DHT22;673;48.098;14.422;2023-07-29T14:23:37;18.60;99.90
1359;DHT22;673;48.098;14.422;2023-07-29T14:26:04;18.90;99.90
1359;DHT22;673;48.098;14.422;2023-07-29T14:28:31;19.10;99.90
1359;DHT22;673;48.098;14.422;2023-07-29T14:30:58;19.20;99.90
1359;DHT22;673;48.098;14.422;2023-07-29T14:33:25;19.50;99.90
1359;DHT22;673;48.098;14.422;2023-07-29T14:35:52;20.00;99.90
1359;DHT22;673;48.098;14.422;2023-07-29T14:38:19;20.60;99.90
1359;DHT22;673;48.098;14.422;2023-07-29T14:40:48;21.00;99.90
1359;DHT22;673;48.098;14.422;2023-07-29T14:43:16;21.80;99.90
1359;DHT22;673;48.098;14.422;2023-07-29T14:45:43;22.10;99.90
1359;DHT22;673;48.098;14.422;2023-07-29T14:48:10;22.20;99.90
1359;DHT22;673;48.098;14.422;2023-07-29T14:50:38;22.00;99.90
1359;DHT22;673;48.098;14.422;2023-07-29T14:53:05;22.10;99.90
1359;DHT22;673;48.098;14.422;2023-07-29T14:55:32;22.20;99.90
1359;DHT22;673;48.098;14.422;2023-07-29T14:58:00;22.30;99.90
1359;DHT22;673;48.098;14.422;2023-07-29T15:00:27;22.50;99.90
1359;DHT22;673;48.098;14.422;2023-07-29T15:02:54;22.30;99.90
1359;DHT22;673;48.098;14.422;2023-07-29T15:05:21;22.60;99.90
1359;DHT22;673;48.098;14.422;2023-07-29T15:07:48;22.10;99.90
1359;DHT22;673;48.098;14.422;2023-07-29T15:10:16;21.50;99.90
1359;DHT22;673;48.098;14.422;2023-07-29T15:12:43;21.30;99.90
1359;DHT22;673;48.098;14.422;2023-07-29T15:15:12;21.20;99.90
1359;DHT22;673;48.098;14.422;2023-07-29T15:17:39;21.80;99.90
1359;DHT22;673;48.098;14.422;2023-07-29T15:20:06;22.00;99.90
1359;DHT22;673;48.098;14.422;2023-07-29T15:22:34;21.70;99.90
1359;DHT22;673;48.098;14.422;2023-07-29T15:25:01;21.40;99.90
1359;DHT22;673;48.098;14.422;2023-07-29T15:27:29;21.30;99.90
1359;DHT22;673;48.098;14.422;2023-07-29T15:29:56;21.10;99.90
1359;DHT22;673;48.098;14.422;2023-07-29T15:32:25;21.10;99.90
1359;DHT22;673;48.098;14.422;2023-07-29T15:34:53;21.60;99.90
1359;DHT22;673;48.098;14.422;2023-07-29T15:37:20;21.60;99.90
1359;DHT22;673;48.098;14.422;2023-07-29T15:39:47;21.50;99.90
1359;DHT22;673;48.098;14.422;2023-07-29T15:42:14;21.40;99.90
1359;DHT22;673;48.098;14.422;2023-07-29T15:44:41;21.50;99.90
1359;DHT22;673;48.098;14.422;2023-07-29T15:47:08;21.60;99.90
1359;DHT22;673;48.098;14.422;2023-07-29T15:49:39;21.30;99.90
1359;DHT22;673;48.098;14.422;2023-07-29T15:52:07;21.40;99.90
1359;DHT22;673;48.098;14.422;2023-07-29T15:54:36;21.60;99.90
1359;DHT22;673;48.098;14.422;2023-07-29T15:57:03;22.60;99.90
1359;DHT22;673;48.098;14.422;2023-07-29T15:59:30;23.10;99.90
1359;DHT22;673;48.098;14.422;2023-07-29T16:01:57;23.40;99.90
1359;DHT22;673;48.098;14.422;2023-07-29T16:04:24;23.60;99.90
1359;DHT22;673;48.098;14.422;2023-07-29T16:06:53;23.40;99.90